createdAt,value
2022-11-11T00:00:48.079Z,5.07
2022-11-11T00:03:34.577Z,5.40
2022-11-11T00:06:20.863Z,4.90
2022-11-11T00:09:07.018Z,4.53
2022-11-11T00:11:53.154Z,4.80
2022-11-11T00:14:40.792Z,4.78
2022-11-11T00:17:44.979Z,4.85
2022-11-11T00:23:53.643Z,4.30
2022-11-11T00:26:43.377Z,5.32
2022-11-11T00:29:29.911Z,4.53
2022-11-11T00:32:28.888Z,4.60
2022-11-11T00:35:34.186Z,4.70
2022-11-11T00:38:39.612Z,4.15
2022-11-11T00:41:27.201Z,4.95
2022-11-11T00:44:13.766Z,4.82
2022-11-11T00:47:17.357Z,4.80
2022-11-11T00:50:24.382Z,4.50
2022-11-11T00:53:13.176Z,4.40
2022-11-11T00:56:00.095Z,4.40
2022-11-11T00:58:46.678Z,4.40
2022-11-11T01:01:33.112Z,5.00
2022-11-11T01:04:19.792Z,5.22
2022-11-11T01:07:07.297Z,4.45
2022-11-11T01:09:54.047Z,4.60
2022-11-11T01:12:40.655Z,4.90
2022-11-11T01:15:26.705Z,4.13
2022-11-11T01:18:15.017Z,4.60
2022-11-11T01:21:03.832Z,4.93
2022-11-11T01:23:52.941Z,4.82
2022-11-11T01:26:39.387Z,4.38
2022-11-11T01:29:25.786Z,4.50
2022-11-11T01:32:11.901Z,4.22
2022-11-11T01:34:58.171Z,4.13
2022-11-11T01:37:44.567Z,4.47
2022-11-11T01:40:32.259Z,4.00
2022-11-11T01:43:23.588Z,3.90
2022-11-11T01:46:26.957Z,3.58
2022-11-11T01:49:26.574Z,3.80
2022-11-11T01:52:15.750Z,3.78
2022-11-11T01:55:06.982Z,3.33
2022-11-11T01:57:58.486Z,3.47
2022-11-11T02:00:44.608Z,3.60
2022-11-11T02:03:34.482Z,3.47
2022-11-11T02:06:20.425Z,3.38
2022-11-11T02:09:08.610Z,2.97
2022-11-11T02:12:15.518Z,3.33
2022-11-11T02:15:04.121Z,3.45
2022-11-11T02:17:50.996Z,3.20
2022-11-11T02:20:40.220Z,3.15
2022-11-11T02:23:31.548Z,3.50
2022-11-11T02:26:19.903Z,3.08
2022-11-11T02:29:12.028Z,2.33
2022-11-11T02:31:58.523Z,4.00
2022-11-11T02:34:45.184Z,3.35
2022-11-11T02:37:31.273Z,3.10
2022-11-11T02:40:21.304Z,2.97
2022-11-11T02:43:09.060Z,3.35
2022-11-11T02:45:55.749Z,3.40
2022-11-11T02:48:41.864Z,3.33
2022-11-11T02:51:28.028Z,3.30
2022-11-11T02:54:14.936Z,3.10
2022-11-11T02:57:10.122Z,3.50
2022-11-11T02:59:59.775Z,3.28
2022-11-11T03:02:46.268Z,3.25
2022-11-11T03:05:33.380Z,3.83
2022-11-11T03:08:19.748Z,3.50
2022-11-11T03:11:06.461Z,3.83
2022-11-11T03:13:53.155Z,3.53
2022-11-11T03:16:58.294Z,4.13
2022-11-11T03:19:45.052Z,3.40
2022-11-11T03:25:40.160Z,3.72
2022-11-11T03:28:26.643Z,3.70
2022-11-11T03:31:13.075Z,3.90
2022-11-11T03:34:18.308Z,3.78
2022-11-11T03:37:23.371Z,3.80
2022-11-11T03:40:10.696Z,3.72
2022-11-11T03:43:02.969Z,4.00
2022-11-11T03:45:52.145Z,3.90
2022-11-11T03:48:38.339Z,4.00
2022-11-11T03:51:25.731Z,3.80
2022-11-11T03:54:12.213Z,3.53
2022-11-11T03:57:20.896Z,3.72
2022-11-11T04:00:14.224Z,6.30
2022-11-11T04:03:25.289Z,15.00
2022-11-11T04:06:29.509Z,9.75
2022-11-11T04:09:35.026Z,16.52
2022-11-11T04:12:21.905Z,8.70
2022-11-11T04:15:26.561Z,5.72
2022-11-11T04:18:12.972Z,9.50
2022-11-11T04:21:16.472Z,6.85
2022-11-11T04:24:02.975Z,4.80
2022-11-11T04:26:49.431Z,3.75
2022-11-11T04:29:35.901Z,2.78
2022-11-11T04:32:43.353Z,4.10
2022-11-11T04:35:29.411Z,2.90
2022-11-11T04:38:33.063Z,3.33
2022-11-11T04:44:24.759Z,2.70
2022-11-11T04:47:11.065Z,2.47
2022-11-11T04:49:57.281Z,2.88
2022-11-11T04:52:44.020Z,2.83
2022-11-11T04:55:48.064Z,2.42
2022-11-11T05:01:36.823Z,2.55
2022-11-11T05:04:23.102Z,2.17
2022-11-11T05:07:26.941Z,2.00
2022-11-11T05:13:13.651Z,2.80
2022-11-11T05:16:17.490Z,2.05
2022-11-11T05:19:22.478Z,2.15
2022-11-11T05:22:14.056Z,2.00
2022-11-11T05:25:17.692Z,2.05
2022-11-11T05:28:04.121Z,1.80
2022-11-11T05:30:50.217Z,2.13
2022-11-11T05:33:36.466Z,1.80
2022-11-11T05:36:24.262Z,1.50
2022-11-11T05:39:10.611Z,1.85
2022-11-11T05:41:56.859Z,2.30
2022-11-11T05:44:42.991Z,2.35
2022-11-11T05:47:29.137Z,2.45
2022-11-11T05:50:16.025Z,2.40
2022-11-11T05:53:03.337Z,2.60
2022-11-11T05:55:51.192Z,2.50
2022-11-11T05:58:37.315Z,2.50
2022-11-11T06:01:23.894Z,2.45
2022-11-11T06:04:16.699Z,3.60
2022-11-11T06:07:04.604Z,2.75
2022-11-11T06:09:52.455Z,2.55
2022-11-11T06:13:02.046Z,2.75
2022-11-11T06:15:48.388Z,2.70
2022-11-11T06:18:34.581Z,2.58
2022-11-11T06:21:20.899Z,2.88
2022-11-11T06:24:07.496Z,1.98
2022-11-11T06:26:55.406Z,2.10
2022-11-11T06:29:42.289Z,2.17
2022-11-11T06:32:30.030Z,2.50
2022-11-11T06:35:16.350Z,2.60
2022-11-11T06:38:02.906Z,3.22
2022-11-11T06:40:49.293Z,3.70
2022-11-11T06:43:36.908Z,4.00
2022-11-11T06:46:24.885Z,3.03
2022-11-11T06:49:10.958Z,3.05
2022-11-11T06:51:57.159Z,2.60
2022-11-11T06:54:43.257Z,2.90
2022-11-11T06:57:29.469Z,3.22
2022-11-11T07:00:18.235Z,3.75
2022-11-11T07:03:05.040Z,3.65
2022-11-11T07:05:55.932Z,3.63
2022-11-11T07:11:31.299Z,3.00
2022-11-11T07:14:17.458Z,2.92
2022-11-11T07:17:06.508Z,3.90
2022-11-11T07:19:53.225Z,3.70
2022-11-11T07:22:39.575Z,15.60
2022-11-11T07:25:25.936Z,6.75
2022-11-11T07:28:11.994Z,4.43
2022-11-11T07:30:58.121Z,4.13
2022-11-11T07:33:45.658Z,3.50
2022-11-11T07:36:31.908Z,3.45
2022-11-11T07:39:17.982Z,3.90
2022-11-11T07:42:04.299Z,3.40
2022-11-11T07:44:50.459Z,3.80
2022-11-11T07:47:37.059Z,4.18
2022-11-11T07:50:24.414Z,5.40
2022-11-11T07:53:10.535Z,6.70
2022-11-11T07:55:56.600Z,6.47
2022-11-11T07:58:42.663Z,9.45
2022-11-11T08:01:28.797Z,7.43
2022-11-11T08:04:14.928Z,7.00
2022-11-11T08:07:02.587Z,7.22
2022-11-11T08:09:48.727Z,4.38
2022-11-11T08:12:52.390Z,4.40
2022-11-11T08:15:38.692Z,4.35
2022-11-11T08:18:25.094Z,3.63
2022-11-11T08:21:11.365Z,4.05
2022-11-11T08:27:05.386Z,4.60
2022-11-11T08:29:51.627Z,4.07
2022-11-11T08:32:37.670Z,4.80
2022-11-11T08:35:23.875Z,5.20
2022-11-11T08:38:09.965Z,4.55
2022-11-11T08:41:00.991Z,3.65
2022-11-11T08:43:47.070Z,3.90
2022-11-11T08:46:33.322Z,3.60
2022-11-11T08:49:19.325Z,4.15
2022-11-11T08:52:05.669Z,3.90
2022-11-11T08:54:52.181Z,3.55
2022-11-11T08:57:39.545Z,3.53
2022-11-11T09:00:25.635Z,3.30
2022-11-11T09:03:13.053Z,4.00
2022-11-11T09:05:59.438Z,3.83
2022-11-11T09:08:45.901Z,3.22
2022-11-11T09:11:36.129Z,3.28
2022-11-11T09:14:24.030Z,3.10
2022-11-11T09:17:10.213Z,2.95
2022-11-11T09:19:56.368Z,3.15
2022-11-11T09:22:46.260Z,3.75
2022-11-11T09:25:32.324Z,2.63
2022-11-11T09:28:18.555Z,4.18
2022-11-11T09:31:37.460Z,2.70
2022-11-11T09:34:13.249Z,3.53
2022-11-11T09:36:59.564Z,3.03
2022-11-11T09:39:45.755Z,3.00
2022-11-11T09:42:38.693Z,2.88
2022-11-11T09:45:33.272Z,2.65
2022-11-11T09:48:38.602Z,2.85
2022-11-11T09:51:29.794Z,2.80
2022-11-11T09:54:23.033Z,3.05
2022-11-11T09:57:16.587Z,2.33
2022-11-11T10:00:07.296Z,2.55
2022-11-11T10:02:56.037Z,2.78
2022-11-11T10:05:49.418Z,2.15
2022-11-11T10:08:43.018Z,2.13
2022-11-11T10:11:52.233Z,1.73
2022-11-11T10:14:41.114Z,2.10
2022-11-11T10:17:35.818Z,2.35
2022-11-11T10:20:26.532Z,2.40
2022-11-11T10:23:17.148Z,2.50
2022-11-11T10:26:13.176Z,2.17
2022-11-11T10:29:01.633Z,1.80
2022-11-11T10:31:56.516Z,1.92
2022-11-11T10:34:42.965Z,2.70
2022-11-11T10:37:40.614Z,2.00
2022-11-11T10:40:35.574Z,1.88
2022-11-11T10:43:24.519Z,1.88
2022-11-11T10:46:17.266Z,1.70
2022-11-11T10:49:08.646Z,2.33
2022-11-11T10:52:04.066Z,2.38
2022-11-11T10:54:58.222Z,2.85
2022-11-11T10:57:52.825Z,2.78
2022-11-11T11:00:43.961Z,2.42
2022-11-11T11:03:35.393Z,2.30
2022-11-11T11:06:30.958Z,2.33
2022-11-11T11:09:22.342Z,2.03
2022-11-11T11:12:14.728Z,2.00
2022-11-11T11:15:09.517Z,2.20
2022-11-11T11:18:02.261Z,2.25
2022-11-11T11:20:59.011Z,2.25
2022-11-11T11:23:46.619Z,3.28
2022-11-11T11:26:44.911Z,2.35
2022-11-11T11:29:33.996Z,2.10
2022-11-11T11:32:23.762Z,2.22
2022-11-11T11:35:10.057Z,2.10
2022-11-11T11:37:56.095Z,2.10
2022-11-11T11:40:53.360Z,1.90
2022-11-11T11:43:42.654Z,1.77
2022-11-11T11:46:31.164Z,1.70
2022-11-11T11:49:33.181Z,1.67
2022-11-11T11:52:26.364Z,2.10
2022-11-11T11:55:17.762Z,1.88
2022-11-11T11:58:31.359Z,2.05
2022-11-11T12:01:23.261Z,2.40
2022-11-11T12:04:26.559Z,1.95
2022-11-11T12:07:21.597Z,2.37
2022-11-11T12:10:20.063Z,2.50
2022-11-11T12:13:15.911Z,2.30
2022-11-11T12:16:15.738Z,2.38
2022-11-11T12:19:17.317Z,2.40
2022-11-11T12:22:12.273Z,2.60
2022-11-11T12:25:08.504Z,2.30
2022-11-11T12:28:03.157Z,2.17
2022-11-11T12:30:52.819Z,2.33
2022-11-11T12:33:54.824Z,2.95
2022-11-11T12:36:49.252Z,2.58
2022-11-11T12:39:53.908Z,2.55
2022-11-11T12:42:52.963Z,2.30
2022-11-11T12:45:47.745Z,2.35
2022-11-11T12:48:47.344Z,2.47
2022-11-11T12:51:49.861Z,2.65
2022-11-11T12:54:46.304Z,2.58
2022-11-11T12:57:39.994Z,2.58
2022-11-11T13:00:27.272Z,2.50
2022-11-11T13:03:33.771Z,2.38
2022-11-11T13:06:40.844Z,2.25
2022-11-11T13:09:36.663Z,2.47
2022-11-11T13:12:29.503Z,2.85
2022-11-11T13:15:18.579Z,2.60
2022-11-11T13:18:13.567Z,2.92
2022-11-11T13:21:02.384Z,3.00
2022-11-11T13:23:48.516Z,3.00
2022-11-11T13:26:43.827Z,2.90
2022-11-11T13:29:55.275Z,2.42
2022-11-11T13:32:47.087Z,2.53
2022-11-11T13:35:37.355Z,2.58
2022-11-11T13:38:31.179Z,2.50
2022-11-11T13:41:25.205Z,2.70
2022-11-11T13:44:22.656Z,2.47
2022-11-11T13:47:17.912Z,3.40
2022-11-11T13:50:07.676Z,3.13
2022-11-11T13:52:58.915Z,3.40
2022-11-11T13:55:47.314Z,3.78
2022-11-11T13:58:36.658Z,3.42
2022-11-11T14:01:24.227Z,4.00
2022-11-11T14:04:12.567Z,4.90
2022-11-11T14:06:58.821Z,5.88
2022-11-11T14:10:00.324Z,7.15
2022-11-11T14:12:48.279Z,5.25
2022-11-11T14:15:40.970Z,5.40
2022-11-11T14:18:38.661Z,4.95
2022-11-11T14:21:50.524Z,4.93
2022-11-11T14:24:39.951Z,4.90
2022-11-11T14:27:30.414Z,4.90
2022-11-11T14:30:36.927Z,5.47
2022-11-11T14:33:39.466Z,5.00
2022-11-11T14:36:33.754Z,5.85
2022-11-11T14:39:33.685Z,5.65
2022-11-11T14:42:46.036Z,6.15
2022-11-11T14:46:02.499Z,6.88
2022-11-11T14:48:59.983Z,6.93
2022-11-11T14:51:52.101Z,6.00
2022-11-11T14:54:52.396Z,6.63
2022-11-11T14:57:40.828Z,7.95
2022-11-11T15:00:29.447Z,8.02
2022-11-11T15:03:22.194Z,9.63
2022-11-11T15:06:15.749Z,10.30
2022-11-11T15:09:14.059Z,9.68
2022-11-11T15:12:09.987Z,10.50
2022-11-11T15:15:04.431Z,10.25
2022-11-11T15:18:03.171Z,10.57
2022-11-11T15:21:07.634Z,11.10
2022-11-11T15:24:08.565Z,13.32
2022-11-11T15:27:02.029Z,11.90
2022-11-11T15:30:15.120Z,17.73
2022-11-11T15:33:10.589Z,12.77
2022-11-11T15:36:10.829Z,12.35
2022-11-11T15:39:00.161Z,11.85
2022-11-11T15:41:50.801Z,12.07
2022-11-11T15:44:38.498Z,14.05
2022-11-11T15:47:31.751Z,12.73
2022-11-11T15:50:30.848Z,12.13
2022-11-11T15:53:24.158Z,12.48
2022-11-11T15:56:10.780Z,13.52
2022-11-11T15:58:56.856Z,15.55
2022-11-11T16:01:43.296Z,14.52
2022-11-11T16:07:39.391Z,13.82
2022-11-11T16:10:29.036Z,16.08
2022-11-11T16:13:18.911Z,17.25
2022-11-11T16:16:10.283Z,22.23
2022-11-11T16:19:02.015Z,26.42
2022-11-11T16:21:55.722Z,23.85
2022-11-11T16:24:45.448Z,19.05
2022-11-11T16:27:33.731Z,19.08
2022-11-11T16:30:31.898Z,16.05
2022-11-11T16:33:34.024Z,17.58
2022-11-11T16:36:20.305Z,16.70
2022-11-11T16:39:21.573Z,15.70
2022-11-11T16:42:17.614Z,17.73
2022-11-11T16:45:05.847Z,18.13
2022-11-11T16:47:52.258Z,16.00
2022-11-11T16:50:56.235Z,16.50
2022-11-11T16:53:45.915Z,17.30
2022-11-11T16:56:36.007Z,17.90
2022-11-11T16:59:27.891Z,17.05
2022-11-11T17:02:18.118Z,16.58
2022-11-11T17:05:04.219Z,16.73
2022-11-11T17:07:50.162Z,15.93
2022-11-11T17:10:40.011Z,17.98
2022-11-11T17:13:29.127Z,28.23
2022-11-11T17:16:15.202Z,20.58
2022-11-11T17:19:02.116Z,16.85
2022-11-11T17:21:48.182Z,15.63
2022-11-11T17:24:34.137Z,17.80
2022-11-11T17:27:20.164Z,16.33
2022-11-11T17:30:09.522Z,15.77
2022-11-11T17:32:55.757Z,14.30
2022-11-11T17:35:51.155Z,14.73
2022-11-11T17:38:38.042Z,17.73
2022-11-11T17:41:24.427Z,14.63
2022-11-11T17:44:10.733Z,14.40
2022-11-11T17:46:57.981Z,12.55
2022-11-11T17:49:56.079Z,13.43
2022-11-11T17:52:42.999Z,11.82
2022-11-11T17:55:29.352Z,11.63
2022-11-11T17:58:15.345Z,13.57
2022-11-11T18:01:06.165Z,13.57
2022-11-11T18:03:57.713Z,11.98
2022-11-11T18:06:43.762Z,12.30
2022-11-11T18:09:30.168Z,12.93
2022-11-11T18:12:16.156Z,14.00
2022-11-11T18:15:02.679Z,12.68
2022-11-11T18:17:48.775Z,13.10
2022-11-11T18:20:36.406Z,12.70
2022-11-11T18:23:22.628Z,11.82
2022-11-11T18:26:09.401Z,15.27
2022-11-11T18:28:55.652Z,13.77
2022-11-11T18:31:41.846Z,13.02
2022-11-11T18:34:27.840Z,13.63
2022-11-11T18:37:15.317Z,16.05
2022-11-11T18:40:01.556Z,13.90
2022-11-11T18:42:47.491Z,12.77
2022-11-11T18:45:36.563Z,12.90
2022-11-11T18:48:22.614Z,16.55
2022-11-11T18:51:10.486Z,14.10
2022-11-11T18:53:58.407Z,12.82
2022-11-11T18:56:44.635Z,14.90
2022-11-11T18:59:30.766Z,18.98
2022-11-11T19:02:16.964Z,15.07
2022-11-11T19:05:03.213Z,12.90
2022-11-11T19:07:49.468Z,12.80
2022-11-11T19:10:36.770Z,11.77
2022-11-11T19:13:23.268Z,12.18
2022-11-11T19:16:11.422Z,12.55
2022-11-11T19:18:57.989Z,12.23
2022-11-11T19:21:43.912Z,12.35
2022-11-11T19:24:33.784Z,11.82
2022-11-11T19:27:21.796Z,12.15
2022-11-11T19:30:08.986Z,13.25
2022-11-11T19:32:55.201Z,14.07
2022-11-11T19:35:41.594Z,11.82
2022-11-11T19:38:27.458Z,12.68
2022-11-11T19:41:15.386Z,17.55
2022-11-11T19:44:03.144Z,15.18
2022-11-11T19:46:49.140Z,23.30
2022-11-11T19:49:38.187Z,19.95
2022-11-11T19:52:24.479Z,15.23
2022-11-11T19:55:10.787Z,11.65
2022-11-11T19:57:57.579Z,10.95
2022-11-11T20:00:45.219Z,11.20
2022-11-11T20:03:34.558Z,10.57
2022-11-11T20:06:23.787Z,11.23
2022-11-11T20:09:10.355Z,11.00
2022-11-11T20:11:56.691Z,12.48
2022-11-11T20:14:42.728Z,11.20
2022-11-11T20:17:30.176Z,11.95
2022-11-11T20:20:16.751Z,13.40
2022-11-11T20:23:06.155Z,12.68
2022-11-11T20:25:52.495Z,13.45
2022-11-11T20:28:39.856Z,14.60
2022-11-11T20:31:28.250Z,12.38
2022-11-11T20:34:16.055Z,12.80
2022-11-11T20:37:02.232Z,17.63
2022-11-11T20:39:48.439Z,15.40
2022-11-11T20:42:34.386Z,14.18
2022-11-11T20:45:20.734Z,14.90
2022-11-11T20:48:09.494Z,12.43
2022-11-11T20:51:03.596Z,13.60
2022-11-11T20:56:39.499Z,11.82
2022-11-11T20:59:25.703Z,19.98
2022-11-11T21:02:12.096Z,12.90
2022-11-11T21:04:58.912Z,10.00
2022-11-11T21:07:49.477Z,10.18
2022-11-11T21:10:35.419Z,10.82
2022-11-11T21:13:21.500Z,10.27
2022-11-11T21:16:14.065Z,9.35
2022-11-11T21:19:03.925Z,8.10
2022-11-11T21:21:50.090Z,9.02
2022-11-11T21:24:37.760Z,9.70
2022-11-11T21:27:23.803Z,8.43
2022-11-11T21:30:10.878Z,7.18
2022-11-11T21:32:57.090Z,7.18
2022-11-11T21:35:43.085Z,6.25
2022-11-11T21:38:29.316Z,6.15
2022-11-11T21:41:18.625Z,6.13
2022-11-11T21:44:05.670Z,6.00
2022-11-11T21:46:51.727Z,6.25
2022-11-11T21:49:37.949Z,6.35
2022-11-11T21:52:24.191Z,8.35
2022-11-11T21:55:10.395Z,8.40
2022-11-11T21:57:58.076Z,19.92
2022-11-11T22:00:44.420Z,8.30
2022-11-11T22:03:32.050Z,8.80
2022-11-11T22:06:18.464Z,9.55
2022-11-11T22:09:05.829Z,10.45
2022-11-11T22:11:51.740Z,8.82
2022-11-11T22:14:39.374Z,9.20
2022-11-11T22:17:25.425Z,9.80
2022-11-11T22:20:12.024Z,9.95
2022-11-11T22:22:58.137Z,9.20
2022-11-11T22:25:45.042Z,9.45
2022-11-11T22:28:32.952Z,12.77
2022-11-11T22:31:22.438Z,8.65
2022-11-11T22:34:10.694Z,8.38
2022-11-11T22:36:57.179Z,8.60
2022-11-11T22:39:43.164Z,6.75
2022-11-11T22:42:29.152Z,7.03
2022-11-11T22:45:15.198Z,8.15
2022-11-11T22:48:02.765Z,7.30
2022-11-11T22:50:48.954Z,6.85
2022-11-11T22:53:35.802Z,7.68
2022-11-11T22:56:22.099Z,6.90
2022-11-11T22:59:08.127Z,7.32
2022-11-11T23:01:54.761Z,7.50
2022-11-11T23:04:42.205Z,6.57
2022-11-11T23:07:28.410Z,7.15
2022-11-11T23:10:14.579Z,6.78
2022-11-11T23:13:00.611Z,5.63
2022-11-11T23:15:52.684Z,7.32
2022-11-11T23:18:39.460Z,7.13
2022-11-11T23:21:28.593Z,5.82
2022-11-11T23:24:14.943Z,5.88
2022-11-11T23:27:01.118Z,6.05
2022-11-11T23:29:52.203Z,5.28
2022-11-11T23:32:39.248Z,4.60
2022-11-11T23:35:25.301Z,4.53
2022-11-11T23:38:12.784Z,4.50
2022-11-11T23:40:59.193Z,5.05
2022-11-11T23:43:45.314Z,4.90
2022-11-11T23:46:35.526Z,5.00
2022-11-11T23:49:21.928Z,5.32
2022-11-11T23:52:07.963Z,4.88
2022-11-11T23:54:55.438Z,4.80
2022-11-11T23:57:41.937Z,5.45
